createdAt,value
2022-08-08T00:01:08.418Z,16.81
2022-08-08T00:04:35.173Z,16.86
2022-08-08T00:07:19.096Z,16.60
2022-08-08T00:09:52.533Z,16.46
2022-08-08T00:12:24.759Z,16.45
2022-08-08T00:15:56.858Z,16.49
2022-08-08T00:18:35.157Z,16.29
2022-08-08T00:21:06.061Z,16.29
2022-08-08T00:23:54.421Z,16.36
2022-08-08T00:26:30.021Z,16.26
2022-08-08T00:29:44.410Z,16.23
2022-08-08T00:32:34.532Z,16.09
2022-08-08T00:35:24.304Z,16.09
2022-08-08T00:38:32.190Z,16.17
2022-08-08T00:41:21.897Z,16.15
2022-08-08T00:44:00.743Z,15.81
2022-08-08T00:47:14.153Z,15.79
2022-08-08T00:50:33.711Z,15.80
2022-08-08T00:53:57.322Z,15.96
2022-08-08T00:57:12.776Z,16.11
2022-08-08T01:00:16.091Z,16.15
2022-08-08T01:03:58.129Z,16.02
2022-08-08T01:06:16.149Z,15.77
2022-08-08T01:09:48.577Z,15.53
2022-08-08T01:12:39.618Z,15.54
2022-08-08T01:15:53.439Z,15.57
2022-08-08T01:18:50.766Z,15.56
2022-08-08T01:22:10.056Z,15.77
2022-08-08T01:24:50.910Z,15.77
2022-08-08T01:27:59.474Z,15.92
2022-08-08T01:30:36.283Z,15.93
2022-08-08T01:33:54.210Z,15.93
2022-08-08T01:36:50.614Z,15.66
2022-08-08T01:39:34.864Z,15.58
2022-08-08T01:42:21.590Z,15.47
2022-08-08T01:45:40.264Z,15.40
2022-08-08T01:48:30.359Z,15.48
2022-08-08T01:51:03.692Z,15.68
2022-08-08T01:55:16.859Z,15.69
2022-08-08T01:57:17.476Z,15.70
2022-08-08T02:00:03.858Z,15.75
2022-08-08T02:02:45.650Z,15.86
2022-08-08T02:05:55.868Z,15.85
2022-08-08T02:10:01.997Z,15.53
2022-08-08T02:12:42.843Z,15.69
2022-08-08T02:15:39.069Z,15.73
2022-08-08T02:18:14.962Z,15.63
2022-08-08T02:21:24.467Z,15.65
2022-08-08T02:24:02.502Z,15.54
2022-08-08T02:26:38.976Z,15.56
2022-08-08T02:29:18.808Z,15.61
2022-08-08T02:31:58.745Z,15.52
2022-08-08T02:35:07.723Z,15.55
2022-08-08T02:38:09.587Z,15.48
2022-08-08T02:41:58.176Z,15.53
2022-08-08T02:44:42.797Z,15.44
2022-08-08T02:47:47.081Z,15.62
2022-08-08T02:50:36.937Z,15.57
2022-08-08T02:53:44.127Z,15.49
2022-08-08T02:56:40.006Z,15.43
2022-08-08T02:59:37.503Z,15.45
2022-08-08T03:02:50.575Z,15.52
2022-08-08T03:05:55.744Z,15.44
2022-08-08T03:09:04.381Z,15.44
2022-08-08T03:12:01.279Z,15.41
2022-08-08T03:16:00.050Z,15.39
2022-08-08T03:17:39.719Z,15.33
2022-08-08T03:20:10.361Z,15.34
2022-08-08T03:22:47.123Z,15.29
2022-08-08T03:25:18.588Z,15.23
2022-08-08T03:27:45.553Z,15.22
2022-08-08T03:30:19.114Z,15.23
2022-08-08T03:33:07.884Z,15.17
2022-08-08T03:35:52.915Z,15.23
2022-08-08T03:38:56.984Z,15.12
2022-08-08T03:42:11.480Z,15.23
2022-08-08T03:43:59.579Z,15.25
2022-08-08T03:46:32.443Z,15.18
2022-08-08T03:49:28.057Z,15.18
2022-08-08T03:51:55.357Z,15.15
2022-08-08T03:54:40.624Z,14.97
2022-08-08T03:58:32.184Z,14.67
2022-08-08T04:00:11.474Z,14.53
2022-08-08T04:02:47.574Z,14.35
2022-08-08T04:05:19.464Z,14.51
2022-08-08T04:07:50.966Z,14.60
2022-08-08T04:10:20.100Z,14.71
2022-08-08T04:12:49.884Z,14.66
2022-08-08T04:15:16.721Z,14.80
2022-08-08T04:17:58.207Z,14.91
2022-08-08T04:20:28.059Z,15.00
2022-08-08T04:22:56.936Z,14.82
2022-08-08T04:25:29.784Z,14.71
2022-08-08T04:28:35.563Z,14.60
2022-08-08T04:30:44.669Z,14.73
2022-08-08T04:33:11.599Z,14.91
2022-08-08T04:35:43.895Z,14.89
2022-08-08T04:38:21.183Z,15.00
2022-08-08T04:40:53.462Z,15.08
2022-08-08T04:43:22.009Z,15.09
2022-08-08T04:45:50.206Z,15.01
2022-08-08T04:48:21.763Z,14.84
2022-08-08T04:50:48.764Z,14.73
2022-08-08T04:54:27.653Z,14.51
2022-08-08T04:56:04.139Z,14.58
2022-08-08T04:58:31.124Z,14.62
2022-08-08T05:00:59.749Z,14.76
2022-08-08T05:04:10.215Z,14.61
2022-08-08T05:06:18.391Z,14.44
2022-08-08T05:08:52.276Z,14.38
2022-08-08T05:11:23.906Z,14.34
2022-08-08T05:13:57.961Z,14.46
2022-08-08T05:16:50.776Z,14.53
2022-08-08T05:20:11.692Z,14.70
2022-08-08T05:22:00.945Z,14.93
2022-08-08T05:24:27.774Z,15.05
2022-08-08T05:26:57.702Z,15.28
2022-08-08T05:29:24.428Z,15.39
2022-08-08T05:32:03.021Z,15.50
2022-08-08T05:34:49.244Z,15.50
2022-08-08T05:37:39.403Z,15.65
2022-08-08T05:40:14.574Z,15.77
2022-08-08T05:42:43.483Z,15.86
2022-08-08T05:45:30.754Z,15.97
2022-08-08T05:48:01.473Z,16.09
2022-08-08T05:50:36.058Z,16.09
2022-08-08T05:53:55.271Z,16.12
2022-08-08T05:56:10.323Z,16.27
2022-08-08T05:58:56.883Z,16.31
2022-08-08T06:01:55.654Z,16.46
2022-08-08T06:04:23.486Z,16.54
2022-08-08T06:07:00.370Z,16.53
2022-08-08T06:10:00.267Z,16.59
2022-08-08T06:12:30.421Z,16.69
2022-08-08T06:15:00.994Z,16.72
2022-08-08T06:17:50.783Z,16.79
2022-08-08T06:20:19.712Z,16.91
2022-08-08T06:22:50.232Z,17.08
2022-08-08T06:25:18.165Z,17.11
2022-08-08T06:27:55.108Z,17.13
2022-08-08T06:30:28.222Z,17.08
2022-08-08T06:33:01.022Z,17.15
2022-08-08T06:36:06.051Z,17.11
2022-08-08T06:38:27.719Z,17.10
2022-08-08T06:41:04.085Z,17.15
2022-08-08T06:43:34.783Z,17.14
2022-08-08T06:46:04.368Z,17.17
2022-08-08T06:48:36.289Z,17.33
2022-08-08T06:51:08.492Z,17.46
2022-08-08T06:53:39.983Z,17.44
2022-08-08T06:56:18.013Z,17.51
2022-08-08T06:58:49.722Z,17.54
2022-08-08T07:02:17.564Z,17.53
2022-08-08T07:04:41.397Z,17.65
2022-08-08T07:07:09.667Z,17.69
2022-08-08T07:09:56.291Z,17.76
2022-08-08T07:12:37.811Z,17.86
2022-08-08T07:15:23.474Z,17.89
2022-08-08T07:18:35.191Z,17.93
2022-08-08T07:20:51.703Z,18.03
2022-08-08T07:23:23.667Z,18.11
2022-08-08T07:25:54.743Z,18.13
2022-08-08T07:28:31.464Z,18.23
2022-08-08T07:30:59.136Z,18.41
2022-08-08T07:33:26.147Z,18.50
2022-08-08T07:35:54.710Z,18.49
2022-08-08T07:38:25.659Z,18.51
2022-08-08T07:40:59.075Z,18.60
2022-08-08T07:43:36.927Z,18.63
2022-08-08T07:46:23.879Z,18.82
2022-08-08T07:48:51.434Z,19.02
2022-08-08T07:51:23.188Z,19.20
2022-08-08T07:54:07.667Z,19.46
2022-08-08T07:57:02.717Z,19.81
2022-08-08T07:59:38.043Z,20.01
2022-08-08T08:02:34.717Z,20.25
2022-08-08T08:05:00.744Z,20.56
2022-08-08T08:07:37.693Z,20.71
2022-08-08T08:10:08.289Z,20.84
2022-08-08T08:12:51.489Z,20.91
2022-08-08T08:15:23.254Z,21.18
2022-08-08T08:17:55.967Z,21.39
2022-08-08T08:20:30.470Z,21.48
2022-08-08T08:22:57.219Z,21.67
2022-08-08T08:25:43.838Z,21.63
2022-08-08T08:28:10.633Z,21.81
2022-08-08T08:30:43.781Z,22.03
2022-08-08T08:33:12.761Z,22.01
2022-08-08T08:36:19.593Z,22.29
2022-08-08T08:38:27.782Z,22.51
2022-08-08T08:40:54.838Z,22.44
2022-08-08T08:43:26.988Z,22.25
2022-08-08T08:45:57.373Z,22.42
2022-08-08T08:48:25.162Z,22.44
2022-08-08T08:50:53.229Z,22.57
2022-08-08T08:53:55.138Z,22.60
2022-08-08T08:56:09.996Z,22.91
2022-08-08T08:58:42.105Z,23.34
2022-08-08T09:01:13.452Z,23.34
2022-08-08T09:03:50.616Z,23.63
2022-08-08T09:06:50.285Z,23.40
2022-08-08T09:09:35.267Z,23.15
2022-08-08T09:12:09.582Z,23.33
2022-08-08T09:14:42.695Z,23.56
2022-08-08T09:17:17.978Z,23.66
2022-08-08T09:22:01.321Z,23.96
2022-08-08T09:22:35.199Z,23.77
2022-08-08T09:25:03.863Z,23.86
2022-08-08T09:27:55.457Z,23.92
2022-08-08T09:30:20.178Z,24.17
2022-08-08T09:33:55.431Z,24.47
2022-08-08T09:35:48.978Z,24.06
2022-08-08T09:38:53.233Z,23.87
2022-08-08T09:42:15.010Z,23.98
2022-08-08T09:44:29.751Z,24.33
2022-08-08T09:48:05.015Z,24.39
2022-08-08T09:49:53.782Z,24.55
2022-08-08T09:52:55.853Z,24.50
2022-08-08T09:55:17.049Z,24.75
2022-08-08T09:57:55.471Z,24.52
2022-08-08T10:00:49.817Z,24.37
2022-08-08T10:03:19.930Z,24.49
2022-08-08T10:05:47.070Z,24.41
2022-08-08T10:08:13.639Z,24.28
2022-08-08T10:10:50.159Z,24.42
2022-08-08T10:13:32.300Z,24.33
2022-08-08T10:16:05.239Z,24.31
2022-08-08T10:18:34.859Z,24.62
2022-08-08T10:21:26.026Z,24.67
2022-08-08T10:24:03.158Z,24.90
2022-08-08T10:26:51.952Z,24.92
2022-08-08T10:29:23.248Z,24.79
2022-08-08T10:32:15.985Z,24.69
2022-08-08T10:35:01.264Z,24.79
2022-08-08T10:37:34.621Z,24.84
2022-08-08T10:40:16.231Z,24.95
2022-08-08T10:42:45.055Z,24.89
2022-08-08T10:45:12.245Z,24.76
2022-08-08T10:47:48.672Z,24.90
2022-08-08T10:50:30.684Z,24.88
2022-08-08T10:53:02.459Z,24.98
2022-08-08T10:55:39.925Z,25.04
2022-08-08T10:58:10.738Z,25.03
2022-08-08T11:00:53.309Z,25.05
2022-08-08T11:04:01.161Z,25.28
2022-08-08T11:06:34.241Z,25.53
2022-08-08T11:09:15.064Z,25.74
2022-08-08T11:12:05.928Z,25.73
2022-08-08T11:14:34.765Z,25.57
2022-08-08T11:17:03.909Z,25.54
2022-08-08T11:19:33.654Z,25.61
2022-08-08T11:22:04.261Z,25.78
2022-08-08T11:24:35.610Z,25.86
2022-08-08T11:27:10.783Z,25.86
2022-08-08T11:30:04.200Z,25.74
2022-08-08T11:32:47.263Z,25.71
2022-08-08T11:35:24.880Z,25.75
2022-08-08T11:38:39.428Z,25.88
2022-08-08T11:40:46.397Z,25.91
2022-08-08T11:43:18.356Z,25.71
2022-08-08T11:46:09.536Z,26.01
2022-08-08T11:48:38.576Z,26.01
2022-08-08T11:51:29.993Z,26.02
2022-08-08T11:53:59.147Z,26.20
2022-08-08T11:56:34.620Z,26.20
2022-08-08T11:59:12.026Z,26.05
2022-08-08T12:01:39.225Z,26.48
2022-08-08T12:04:08.414Z,26.68
2022-08-08T12:06:34.980Z,26.06
2022-08-08T12:09:07.334Z,26.00
2022-08-08T12:11:42.675Z,26.11
2022-08-08T12:14:11.703Z,26.36
2022-08-08T12:16:48.927Z,26.27
2022-08-08T12:19:15.972Z,26.20
2022-08-08T12:22:00.295Z,26.04
2022-08-08T12:24:51.572Z,26.22
2022-08-08T12:27:20.939Z,26.56
2022-08-08T12:30:00.015Z,26.63
2022-08-08T12:32:31.269Z,26.55
2022-08-08T12:35:04.240Z,26.39
2022-08-08T12:37:41.173Z,26.25
2022-08-08T12:40:22.451Z,25.89
2022-08-08T12:42:50.044Z,25.95
2022-08-08T12:45:58.045Z,26.06
2022-08-08T12:48:37.549Z,26.19
2022-08-08T12:51:19.222Z,26.58
2022-08-08T12:54:00.531Z,26.51
2022-08-08T12:56:38.805Z,26.56
2022-08-08T12:59:36.474Z,26.42
2022-08-08T13:02:28.446Z,26.24
2022-08-08T13:04:59.204Z,26.35
2022-08-08T13:08:04.018Z,26.23
2022-08-08T13:10:36.272Z,26.23
2022-08-08T13:13:08.169Z,26.13
2022-08-08T13:15:35.600Z,26.10
2022-08-08T13:18:10.588Z,26.17
2022-08-08T13:20:48.995Z,26.21
2022-08-08T13:23:36.875Z,25.87
2022-08-08T13:26:14.604Z,25.99
2022-08-08T13:28:42.756Z,26.34
2022-08-08T13:31:16.265Z,26.35
2022-08-08T13:33:47.184Z,26.46
2022-08-08T13:36:17.201Z,26.28
2022-08-08T13:38:44.743Z,26.15
2022-08-08T13:41:16.664Z,26.01
2022-08-08T13:43:47.679Z,25.90
